Time;durP1;ratioP1;P1;durP2;ratioP2;P2;SDS_P1;SDS_P2;PMS_P1;PMS_P2;Temp;Humidity;BMP_temperature;BMP_pressure;BME280_temperature;BME280_humidity;BME280_pressure;Samples;Min_cycle;Max_cycle;Signal;HPM_P1;HPM_P2
2023/05/04 00:01:10;;;;;;;1.27;0.50;;;14.60;99.90;;;;;;5029150;28;20060;-73
2023/05/04 00:03:38;;;;;;;1.52;0.70;;;14.70;99.90;;;;;;5026129;28;20033;-73
2023/05/04 00:06:04;;;;;;;1.05;0.40;;;14.70;99.90;;;;;;5029335;28;20057;-72
2023/05/04 00:08:30;;;;;;;2.20;0.50;;;14.50;99.90;;;;;;5024027;28;20061;-72
2023/05/04 00:10:56;;;;;;;1.23;0.50;;;14.40;99.90;;;;;;5028846;28;20029;-73
2023/05/04 00:13:21;;;;;;;1.30;0.60;;;14.40;99.90;;;;;;5026733;28;20030;-72
2023/05/04 00:15:47;;;;;;;0.80;0.30;;;14.50;99.90;;;;;;5025543;28;20086;-73
2023/05/04 00:18:13;;;;;;;1.42;0.50;;;14.40;99.90;;;;;;5022454;28;20025;-73
2023/05/04 00:20:38;;;;;;;1.20;0.60;;;14.40;99.90;;;;;;5029900;28;20036;-73
2023/05/04 00:23:04;;;;;;;1.42;0.60;;;14.30;99.90;;;;;;5021447;28;20041;-73
2023/05/04 00:25:30;;;;;;;1.75;0.63;;;14.20;99.90;;;;;;5023103;28;20021;-73
2023/05/04 00:27:56;;;;;;;1.45;0.60;;;14.20;99.90;;;;;;5029950;28;20033;-73
2023/05/04 00:30:22;;;;;;;1.55;0.70;;;14.20;99.90;;;;;;5025329;28;20543;-73
2023/05/04 00:32:47;;;;;;;1.63;0.63;;;14.20;99.90;;;;;;5030416;28;20065;-73
2023/05/04 00:35:13;;;;;;;0.90;0.50;;;14.20;99.90;;;;;;5019595;28;20037;-72
2023/05/04 00:37:39;;;;;;;2.90;0.55;;;14.20;99.90;;;;;;5028605;28;20014;-73
2023/05/04 00:40:05;;;;;;;1.33;0.50;;;14.20;99.90;;;;;;5022816;28;20061;-72
2023/05/04 00:42:31;;;;;;;2.28;0.77;;;14.30;99.90;;;;;;5021180;28;20088;-72
2023/05/04 00:44:56;;;;;;;1.60;0.55;;;14.00;99.90;;;;;;5025243;28;20480;-73
2023/05/04 00:47:23;;;;;;;2.65;0.60;;;14.00;99.90;;;;;;5025569;28;20187;-73
2023/05/04 00:49:50;;;;;;;1.42;0.70;;;14.00;99.90;;;;;;5021626;28;20032;-74
2023/05/04 00:52:16;;;;;;;1.17;0.50;;;13.90;99.90;;;;;;5029217;28;20395;-73
2023/05/04 00:54:45;;;;;;;1.40;0.63;;;14.00;99.90;;;;;;5027934;28;20025;-72
2023/05/04 00:57:11;;;;;;;1.30;0.73;;;14.00;99.90;;;;;;5026852;28;20460;-73
2023/05/04 00:59:38;;;;;;;1.35;0.65;;;14.10;99.90;;;;;;5022330;28;20381;-72
2023/05/04 01:02:03;;;;;;;1.80;0.70;;;13.90;99.90;;;;;;5029528;28;20033;-73
2023/05/04 01:04:30;;;;;;;1.67;0.80;;;13.80;99.90;;;;;;5022187;28;20087;-73
2023/05/04 01:07:13;;;;;;;1.35;0.60;;;13.80;99.90;;;;;;5017781;28;20033;-73
2023/05/04 01:10:06;;;;;;;1.80;0.50;;;13.90;99.90;;;;;;5019300;28;20539;-73
2023/05/04 01:12:41;;;;;;;1.98;1.05;;;13.90;99.90;;;;;;5018612;28;20368;-72
2023/05/04 01:15:09;;;;;;;1.45;0.52;;;13.90;99.90;;;;;;5017653;28;20094;-73
2023/05/04 01:17:34;;;;;;;1.75;0.40;;;14.00;99.90;;;;;;5027721;28;20037;-73
2023/05/04 01:20:00;;;;;;;0.75;0.52;;;14.00;99.90;;;;;;5021692;28;20109;-73
2023/05/04 01:22:26;;;;;;;2.10;0.73;;;14.00;99.90;;;;;;5024429;28;20399;-73
2023/05/04 01:24:52;;;;;;;2.00;0.68;;;14.00;99.90;;;;;;5027500;28;20033;-72
2023/05/04 01:27:41;;;;;;;1.85;0.60;;;14.00;99.90;;;;;;5033540;28;20492;-73
2023/05/04 01:30:11;;;;;;;1.05;0.50;;;14.00;99.90;;;;;;5032989;28;20034;-73
2023/05/04 01:32:38;;;;;;;1.80;0.80;;;14.00;99.90;;;;;;5026852;28;20036;-72
2023/05/04 01:35:04;;;;;;;1.50;0.80;;;13.90;99.90;;;;;;5027689;28;20029;-73
2023/05/04 01:37:30;;;;;;;2.33;0.70;;;14.00;99.90;;;;;;5033343;28;20034;-73
2023/05/04 01:39:55;;;;;;;1.70;0.63;;;14.10;99.90;;;;;;5030303;28;20108;-73
2023/05/04 01:42:21;;;;;;;0.80;0.40;;;14.10;99.90;;;;;;5031160;28;20436;-73
2023/05/04 01:44:46;;;;;;;2.22;0.60;;;14.30;99.90;;;;;;5028345;28;20681;-73
2023/05/04 01:47:12;;;;;;;2.20;0.70;;;14.30;99.90;;;;;;5027555;28;20052;-73
2023/05/04 01:49:38;;;;;;;1.55;0.77;;;14.20;99.90;;;;;;5032159;28;20096;-73
2023/05/04 01:52:04;;;;;;;2.85;0.88;;;14.10;99.90;;;;;;5031092;28;20025;-72
2023/05/04 01:54:29;;;;;;;3.35;0.63;;;14.00;99.90;;;;;;5024291;28;20395;-73
2023/05/04 01:56:55;;;;;;;2.25;0.65;;;14.00;99.90;;;;;;5030759;28;20060;-73
2023/05/04 01:59:21;;;;;;;2.17;0.65;;;14.10;99.90;;;;;;5032458;28;20033;-73
2023/05/04 02:01:46;;;;;;;1.05;0.60;;;14.20;99.90;;;;;;5023701;28;20038;-73
2023/05/04 02:04:12;;;;;;;2.00;0.95;;;14.10;99.90;;;;;;5024284;28;20039;-73
2023/05/04 02:06:38;;;;;;;0.70;0.38;;;14.10;99.90;;;;;;5029086;28;20051;-72
2023/05/04 02:09:03;;;;;;;1.30;0.50;;;14.20;99.90;;;;;;5029296;28;20026;-73
2023/05/04 02:11:29;;;;;;;1.00;0.65;;;14.00;99.90;;;;;;5027288;28;20025;-73
2023/05/04 02:13:54;;;;;;;0.93;0.50;;;14.00;99.90;;;;;;5029608;28;20030;-73
2023/05/04 02:16:20;;;;;;;1.38;0.70;;;13.90;99.90;;;;;;5030820;28;20384;-73
2023/05/04 02:18:46;;;;;;;2.13;0.60;;;13.90;99.90;;;;;;5023605;28;20490;-73
2023/05/04 02:21:12;;;;;;;0.85;0.50;;;13.80;99.90;;;;;;5026672;28;20032;-73
2023/05/04 02:23:38;;;;;;;4.00;0.68;;;13.80;99.90;;;;;;5027372;28;20040;-73
2023/05/04 02:26:03;;;;;;;0.65;0.63;;;13.90;99.90;;;;;;5030308;28;20025;-73
2023/05/04 02:28:29;;;;;;;7.60;1.20;;;13.90;99.90;;;;;;5026014;28;20415;-72
2023/05/04 02:30:55;;;;;;;1.83;0.60;;;13.90;99.90;;;;;;5024977;28;20082;-73
2023/05/04 02:33:20;;;;;;;0.40;0.30;;;13.80;99.90;;;;;;5030091;28;20060;-73
2023/05/04 02:35:46;;;;;;;1.08;0.47;;;13.60;99.90;;;;;;5021971;28;20043;-72
2023/05/04 02:38:12;;;;;;;0.75;0.50;;;13.50;99.90;;;;;;5031598;28;20033;-73
2023/05/04 02:40:37;;;;;;;1.10;0.57;;;13.40;99.90;;;;;;5029601;28;20038;-72
2023/05/04 02:43:03;;;;;;;1.23;0.60;;;13.40;99.90;;;;;;5026354;28;20493;-73
2023/05/04 02:45:29;;;;;;;1.15;0.60;;;13.20;99.90;;;;;;5028711;28;20052;-73
2023/05/04 02:47:54;;;;;;;1.38;0.60;;;13.30;99.90;;;;;;5031518;28;20029;-72
2023/05/04 02:50:20;;;;;;;1.33;0.60;;;13.30;99.90;;;;;;5030437;28;20037;-73
2023/05/04 02:52:45;;;;;;;3.28;0.85;;;13.20;99.90;;;;;;5030300;28;20432;-73
2023/05/04 02:55:11;;;;;;;2.03;0.73;;;13.30;99.90;;;;;;5030091;28;20530;-73
2023/05/04 02:57:37;;;;;;;1.35;0.63;;;13.30;99.90;;;;;;5024893;28;20566;-72
2023/05/04 03:00:05;;;;;;;4.60;0.70;;;13.20;99.90;;;;;;5028262;28;20033;-73
2023/05/04 03:02:31;;;;;;;2.03;0.70;;;13.30;99.90;;;;;;5022846;28;20022;-72
2023/05/04 03:04:57;;;;;;;0.95;0.57;;;13.40;99.90;;;;;;5024446;28;20079;-72
2023/05/04 03:07:22;;;;;;;1.00;0.60;;;13.40;99.90;;;;;;5026468;28;20037;-71
2023/05/04 03:09:48;;;;;;;1.02;0.68;;;13.40;99.90;;;;;;5024982;28;20048;-72
2023/05/04 03:12:14;;;;;;;2.47;0.85;;;13.30;99.90;;;;;;5021692;28;20028;-71
2023/05/04 03:14:40;;;;;;;1.90;0.85;;;13.30;99.90;;;;;;5021625;28;20029;-71
2023/05/04 03:17:05;;;;;;;1.40;0.55;;;13.30;99.90;;;;;;5023068;28;20029;-71
2023/05/04 03:19:31;;;;;;;1.50;0.60;;;13.30;99.90;;;;;;5017372;28;20053;-72
2023/05/04 03:21:57;;;;;;;1.23;0.50;;;13.30;99.90;;;;;;5021217;28;20507;-72
2023/05/04 03:24:24;;;;;;;2.33;0.80;;;13.20;99.90;;;;;;5025621;28;20025;-72
2023/05/04 03:26:49;;;;;;;1.25;0.45;;;13.20;99.90;;;;;;5027251;28;20613;-73
2023/05/04 03:29:15;;;;;;;1.83;0.93;;;13.20;99.90;;;;;;5025521;28;20065;-72
2023/05/04 03:31:41;;;;;;;1.05;0.52;;;13.00;99.90;;;;;;5015869;28;20037;-73
2023/05/04 03:34:08;;;;;;;3.20;0.90;;;13.00;99.90;;;;;;5021194;28;20033;-72
2023/05/04 03:36:34;;;;;;;4.80;0.50;;;13.00;99.90;;;;;;5016547;28;20663;-72
2023/05/04 03:39:00;;;;;;;2.00;1.05;;;13.00;99.90;;;;;;5015999;28;20064;-72
2023/05/04 03:41:25;;;;;;;1.10;0.60;;;13.00;99.90;;;;;;5010030;28;20032;-75
2023/05/04 03:43:51;;;;;;;1.45;0.70;;;13.00;99.90;;;;;;5021020;28;20086;-72
2023/05/04 03:46:17;;;;;;;1.60;0.60;;;12.90;99.90;;;;;;5026070;28;20518;-71
2023/05/04 03:48:42;;;;;;;1.83;0.63;;;12.90;99.90;;;;;;5020012;28;20030;-71
2023/05/04 03:51:08;;;;;;;2.45;0.60;;;12.90;99.90;;;;;;5020972;28;20483;-72
2023/05/04 03:53:34;;;;;;;1.92;0.60;;;12.90;99.90;;;;;;5021649;28;20021;-73
2023/05/04 03:56:01;;;;;;;4.03;0.63;;;13.00;99.90;;;;;;5025395;28;20053;-72
2023/05/04 03:58:26;;;;;;;1.85;0.60;;;12.90;99.90;;;;;;5023579;28;20467;-73
2023/05/04 04:00:52;;;;;;;2.75;0.80;;;12.90;99.90;;;;;;5022294;28;20053;-73
2023/05/04 04:03:18;;;;;;;0.55;0.43;;;12.90;99.90;;;;;;5020842;28;20047;-73
2023/05/04 04:05:43;;;;;;;1.67;0.63;;;12.90;99.90;;;;;;5024374;28;20026;-72
2023/05/04 04:08:09;;;;;;;1.65;0.82;;;12.80;99.90;;;;;;5018872;28;20044;-72
2023/05/04 04:10:35;;;;;;;1.75;0.70;;;12.80;99.90;;;;;;5021861;28;20072;-72
2023/05/04 04:13:01;;;;;;;1.30;0.63;;;12.80;99.90;;;;;;5018334;28;20037;-72
2023/05/04 04:15:26;;;;;;;0.93;0.45;;;12.80;99.90;;;;;;5012177;28;20543;-73
2023/05/04 04:17:52;;;;;;;0.60;0.45;;;12.80;99.90;;;;;;5016541;28;20137;-72
2023/05/04 04:20:18;;;;;;;1.38;0.80;;;12.70;99.90;;;;;;5018405;28;20139;-72
2023/05/04 04:22:44;;;;;;;1.42;0.68;;;12.80;99.90;;;;;;5018121;28;23570;-73
2023/05/04 04:25:09;;;;;;;3.10;0.88;;;12.70;99.90;;;;;;5016519;28;23328;-72
2023/05/04 04:27:36;;;;;;;1.00;0.65;;;12.70;99.90;;;;;;5015444;28;20103;-72
2023/05/04 04:30:03;;;;;;;4.38;1.05;;;12.70;99.90;;;;;;5018721;28;20084;-72
2023/05/04 04:32:29;;;;;;;2.10;0.90;;;12.80;99.90;;;;;;5019681;28;20117;-72
2023/05/04 04:34:54;;;;;;;2.30;0.82;;;12.90;99.90;;;;;;5013514;28;20690;-72
2023/05/04 04:37:20;;;;;;;1.73;0.73;;;13.00;99.90;;;;;;5018562;28;20107;-73
2023/05/04 04:39:46;;;;;;;1.63;0.90;;;12.90;99.90;;;;;;5017854;28;20141;-72
2023/05/04 04:42:12;;;;;;;4.80;1.00;;;12.90;99.90;;;;;;5015148;28;20576;-72
2023/05/04 04:44:38;;;;;;;1.20;0.90;;;13.10;99.90;;;;;;5021606;28;20056;-75
2023/05/04 04:47:03;;;;;;;1.40;0.63;;;13.10;99.90;;;;;;5019632;28;20068;-72
2023/05/04 04:49:29;;;;;;;2.17;0.95;;;12.90;99.90;;;;;;5018458;28;20545;-75
2023/05/04 04:51:55;;;;;;;1.45;0.68;;;12.80;99.90;;;;;;5012705;28;21140;-74
2023/05/04 04:54:21;;;;;;;1.42;0.70;;;12.90;99.90;;;;;;5017342;28;20030;-73
2023/05/04 04:56:47;;;;;;;3.15;0.95;;;13.00;99.90;;;;;;5018918;28;20048;-75
2023/05/04 04:59:12;;;;;;;2.08;0.88;;;13.20;99.90;;;;;;5024015;28;21034;-72
2023/05/04 05:01:40;;;;;;;1.73;0.90;;;13.20;99.90;;;;;;5027943;28;20036;-73
2023/05/04 05:04:06;;;;;;;1.30;0.77;;;13.10;99.90;;;;;;5028534;28;20029;-72
2023/05/04 05:06:32;;;;;;;1.75;0.90;;;13.10;99.90;;;;;;5028048;28;20026;-73
2023/05/04 05:08:57;;;;;;;1.58;0.70;;;13.20;99.90;;;;;;5025583;28;20044;-73
2023/05/04 05:11:23;;;;;;;1.20;0.60;;;13.30;99.90;;;;;;5024403;28;20040;-72
2023/05/04 05:13:49;;;;;;;3.50;0.60;;;13.40;99.90;;;;;;5026023;28;20041;-73
2023/05/04 05:16:15;;;;;;;1.92;0.88;;;13.40;99.90;;;;;;5029415;28;20136;-73
2023/05/04 05:18:41;;;;;;;2.95;0.60;;;13.40;99.90;;;;;;5020907;28;20041;-73
2023/05/04 05:21:08;;;;;;;2.58;1.10;;;13.60;99.90;;;;;;5029165;28;20041;-73
2023/05/04 05:23:34;;;;;;;1.58;0.68;;;13.70;99.90;;;;;;5027907;28;20120;-72
2023/05/04 05:26:00;;;;;;;3.28;0.80;;;13.80;99.90;;;;;;5028075;28;21006;-75
2023/05/04 05:28:26;;;;;;;2.58;0.80;;;14.00;99.90;;;;;;5027108;28;20048;-75
2023/05/04 05:30:51;;;;;;;1.85;0.80;;;14.00;99.90;;;;;;5027493;28;20030;-73
2023/05/04 05:33:17;;;;;;;1.67;0.70;;;14.10;99.90;;;;;;5027012;28;20033;-73
2023/05/04 05:35:44;;;;;;;1.90;0.80;;;14.10;99.90;;;;;;5023483;28;20037;-73
2023/05/04 05:38:10;;;;;;;1.92;1.08;;;14.10;99.90;;;;;;5023641;28;20021;-73
2023/05/04 05:40:36;;;;;;;2.13;0.93;;;14.00;99.90;;;;;;5024347;28;20030;-72
2023/05/04 05:43:03;;;;;;;1.13;0.73;;;14.20;99.90;;;;;;5018291;28;20034;-73
2023/05/04 05:45:28;;;;;;;1.98;1.00;;;14.30;99.90;;;;;;5024607;28;20065;-72
2023/05/04 05:47:54;;;;;;;2.15;0.85;;;14.50;99.90;;;;;;5028199;28;20065;-76
2023/05/04 05:50:22;;;;;;;4.07;1.50;;;14.60;99.90;;;;;;5025175;28;20086;-72
2023/05/04 05:52:48;;;;;;;3.22;1.33;;;14.70;99.90;;;;;;5023177;28;20503;-72
2023/05/04 05:55:13;;;;;;;1.38;0.70;;;14.60;99.90;;;;;;5024367;28;20056;-73
2023/05/04 05:57:39;;;;;;;2.55;1.10;;;14.70;99.90;;;;;;5021745;28;20120;-73
2023/05/04 06:00:05;;;;;;;7.93;5.05;;;14.80;99.90;;;;;;5025248;28;20026;-73
2023/05/04 06:02:31;;;;;;;4.18;1.67;;;14.90;99.90;;;;;;5026602;28;20065;-72
2023/05/04 06:04:57;;;;;;;2.50;1.13;;;14.90;99.90;;;;;;5027311;28;20083;-73
2023/05/04 06:07:22;;;;;;;2.25;0.88;;;14.80;99.90;;;;;;5025001;28;20034;-72
2023/05/04 06:09:48;;;;;;;2.00;0.68;;;14.90;99.90;;;;;;5021890;28;20091;-73
2023/05/04 06:12:15;;;;;;;2.05;0.95;;;14.90;99.90;;;;;;5018972;28;20041;-71
2023/05/04 06:14:41;;;;;;;1.75;0.80;;;14.90;99.90;;;;;;5018836;28;20033;-74
2023/05/04 06:17:07;;;;;;;6.05;1.30;;;15.00;99.90;;;;;;5021687;28;20029;-75
2023/05/04 06:19:37;;;;;;;2.67;1.10;;;15.20;99.90;;;;;;5017662;28;20073;-76
2023/05/04 06:22:04;;;;;;;2.55;1.20;;;15.20;99.90;;;;;;5016137;28;20040;-77
2023/05/04 06:24:30;;;;;;;2.25;1.30;;;15.20;99.90;;;;;;5018512;28;20036;-75
2023/05/04 06:26:56;;;;;;;3.28;1.70;;;15.40;99.90;;;;;;5015815;28;20026;-76
2023/05/04 06:29:23;;;;;;;66.90;36.85;;;15.50;99.90;;;;;;5013398;28;20096;-75
2023/05/04 06:31:49;;;;;;;77.57;44.58;;;15.60;99.90;;;;;;5014472;28;20029;-75
2023/05/04 06:34:18;;;;;;;5.55;3.10;;;15.60;99.90;;;;;;5015203;28;20036;-75
2023/05/04 06:36:44;;;;;;;5.57;2.72;;;15.70;99.90;;;;;;5017659;28;20064;-75
2023/05/04 06:39:10;;;;;;;3.58;1.30;;;15.70;99.90;;;;;;5017385;28;20018;-76
2023/05/04 06:41:36;;;;;;;2.35;1.13;;;15.70;99.90;;;;;;5007206;28;20063;-75
2023/05/04 06:44:03;;;;;;;2.05;1.13;;;15.80;99.90;;;;;;5014423;28;20578;-75
2023/05/04 06:46:28;;;;;;;419.55;278.75;;;15.90;99.90;;;;;;5013292;28;20075;-74
2023/05/04 06:48:54;;;;;;;13.57;7.45;;;15.80;99.90;;;;;;5010437;28;20035;-75
2023/05/04 06:51:21;;;;;;;5.35;2.78;;;16.10;99.90;;;;;;5018577;28;20033;-75
2023/05/04 06:53:46;;;;;;;4.05;1.83;;;16.10;99.90;;;;;;5020555;28;20537;-75
2023/05/04 06:56:12;;;;;;;8.80;2.10;;;16.20;99.90;;;;;;5011570;28;20049;-76
2023/05/04 06:58:38;;;;;;;2.80;1.40;;;16.40;99.90;;;;;;5011482;28;20030;-75
2023/05/04 07:01:03;;;;;;;3.33;1.48;;;16.60;99.90;;;;;;5019011;28;20064;-75
2023/05/04 07:03:29;;;;;;;18.08;8.75;;;16.60;99.90;;;;;;5010265;28;20034;-75
2023/05/04 07:05:55;;;;;;;3.90;2.22;;;16.40;99.90;;;;;;5008413;28;20030;-75
2023/05/04 07:08:21;;;;;;;14.70;7.40;;;16.40;99.90;;;;;;5006556;28;20034;-75
2023/05/04 07:10:46;;;;;;;16.55;7.80;;;18.00;99.90;;;;;;5008538;28;20416;-75
2023/05/04 07:13:13;;;;;;;4.65;1.50;;;18.60;99.40;;;;;;5015179;28;20108;-76
2023/05/04 07:15:39;;;;;;;4.43;1.40;;;20.30;97.10;;;;;;5011634;28;20051;-76
2023/05/04 07:18:04;;;;;;;4.18;1.17;;;21.60;95.20;;;;;;5015981;28;20925;-77
2023/05/04 07:20:30;;;;;;;4.47;1.30;;;22.30;94.00;;;;;;5009713;28;20940;-78
2023/05/04 07:22:56;;;;;;;2.70;1.33;;;21.80;94.10;;;;;;5016374;28;20494;-75
2023/05/04 07:25:25;;;;;;;46.97;28.00;;;22.00;94.60;;;;;;5014250;28;20033;-75
2023/05/04 07:27:51;;;;;;;86.95;54.88;;;23.30;93.00;;;;;;5014808;28;20525;-75
2023/05/04 07:30:18;;;;;;;32.45;20.90;;;21.50;93.60;;;;;;5008671;28;20109;-75
2023/05/04 07:32:43;;;;;;;4.35;2.25;;;21.80;93.90;;;;;;5013582;28;20037;-76
2023/05/04 07:35:09;;;;;;;5.90;1.42;;;22.30;93.90;;;;;;5017966;28;20037;-75
2023/05/04 07:37:35;;;;;;;3.45;1.40;;;21.90;93.50;;;;;;5019421;28;20108;-75
2023/05/04 07:40:04;;;;;;;3.85;1.42;;;20.20;95.80;;;;;;5019206;28;20124;-75
2023/05/04 07:42:30;;;;;;;3.08;1.45;;;20.90;94.50;;;;;;5012180;28;20036;-74
2023/05/04 07:44:56;;;;;;;3.17;1.13;;;21.10;93.80;;;;;;5013924;28;20053;-75
2023/05/04 07:47:22;;;;;;;3.38;1.48;;;20.50;94.60;;;;;;5015810;28;20404;-76
2023/05/04 07:49:48;;;;;;;4.07;1.15;;;19.20;96.20;;;;;;5012062;28;20025;-75
2023/05/04 07:52:14;;;;;;;6.38;1.65;;;18.50;98.00;;;;;;5014577;28;20033;-75
2023/05/04 07:54:40;;;;;;;2.72;1.30;;;17.90;98.20;;;;;;5018262;28;20030;-75
2023/05/04 07:57:06;;;;;;;6.95;2.50;;;17.50;99.30;;;;;;5013246;28;20045;-75
2023/05/04 07:59:31;;;;;;;2.83;1.45;;;17.50;99.40;;;;;;5012612;28;20124;-75
2023/05/04 08:01:57;;;;;;;3.40;1.58;;;17.50;99.30;;;;;;5009457;28;20503;-75
2023/05/04 08:04:23;;;;;;;5.03;1.92;;;17.60;99.70;;;;;;5008704;28;20068;-74
2023/05/04 08:06:48;;;;;;;4.45;1.60;;;17.50;99.40;;;;;;5014157;28;20025;-74
2023/05/04 08:09:18;;;;;;;48.17;31.65;;;17.20;99.60;;;;;;5022330;28;20037;-74
2023/05/04 08:11:45;;;;;;;16.77;7.00;;;17.00;99.90;;;;;;5022766;28;20044;-74
2023/05/04 08:14:10;;;;;;;15.57;10.65;;;17.20;99.90;;;;;;5018930;28;20052;-74
2023/05/04 08:16:38;;;;;;;32.45;19.77;;;18.30;98.70;;;;;;5022963;28;20080;-74
2023/05/04 08:19:04;;;;;;;4.53;2.50;;;20.50;96.20;;;;;;5020709;28;20034;-75
2023/05/04 08:21:30;;;;;;;3.47;1.63;;;20.80;95.00;;;;;;5022411;28;20025;-75
2023/05/04 08:23:56;;;;;;;13.30;2.63;;;21.20;94.80;;;;;;5018226;28;20075;-75
2023/05/04 08:26:22;;;;;;;3.85;1.88;;;22.10;94.10;;;;;;5018653;28;20060;-75
2023/05/04 08:28:48;;;;;;;4.43;1.65;;;22.50;92.70;;;;;;5020969;28;20030;-75
2023/05/04 08:31:14;;;;;;;4.22;1.75;;;21.40;93.60;;;;;;5018424;28;20041;-75
2023/05/04 08:33:40;;;;;;;25.67;14.68;;;21.90;93.90;;;;;;5023156;28;20029;-76
2023/05/04 08:36:08;;;;;;;14.10;8.07;;;21.40;94.00;;;;;;5018081;28;20549;-75
2023/05/04 08:38:34;;;;;;;3.58;1.63;;;21.00;93.80;;;;;;5020893;28;20206;-75
2023/05/04 08:41:04;;;;;;;7.15;1.98;;;20.90;94.50;;;;;;5022995;28;20045;-74
2023/05/04 08:43:32;;;;;;;3.15;1.38;;;20.50;94.70;;;;;;5021943;28;20124;-76
2023/05/04 08:45:58;;;;;;;3.28;1.70;;;20.20;95.50;;;;;;5021134;28;20057;-74
2023/05/04 08:48:23;;;;;;;14.90;6.13;;;19.50;95.10;;;;;;5018898;28;20036;-75
2023/05/04 08:50:50;;;;;;;8.10;3.72;;;19.00;95.00;;;;;;5017560;28;20101;-74
2023/05/04 08:53:18;;;;;;;3.92;1.38;;;19.40;95.40;;;;;;5018013;28;20037;-74
2023/05/04 08:55:48;;;;;;;5.40;2.33;;;20.00;95.00;;;;;;5019329;28;21101;-75
2023/05/04 08:58:16;;;;;;;2.28;1.30;;;19.70;94.80;;;;;;5019024;28;20037;-74
2023/05/04 09:00:43;;;;;;;3.00;1.65;;;20.00;95.10;;;;;;5019492;28;20034;-75
2023/05/04 09:03:10;;;;;;;3.28;1.67;;;20.10;94.40;;;;;;5014962;28;20033;-75
2023/05/04 09:05:37;;;;;;;1.77;1.10;;;19.80;93.80;;;;;;5017033;28;20029;-74
2023/05/04 09:08:02;;;;;;;4.88;1.15;;;19.80;93.90;;;;;;5021971;28;20029;-74
2023/05/04 09:10:29;;;;;;;2.42;1.20;;;19.70;94.40;;;;;;5017818;28;20034;-74
2023/05/04 09:12:55;;;;;;;1.90;1.10;;;20.00;94.30;;;;;;5018175;28;20475;-74
2023/05/04 09:15:22;;;;;;;2.83;1.25;;;19.90;94.50;;;;;;5017748;28;20083;-74
2023/05/04 09:18:05;;;;;;;2.63;1.08;;;20.10;94.50;;;;;;5018736;28;20083;-74
2023/05/04 09:20:42;;;;;;;2.63;1.30;;;20.20;93.80;;;;;;5019608;28;20491;-75
2023/05/04 09:23:08;;;;;;;4.25;1.35;;;20.30;94.40;;;;;;5021784;28;20033;-75
2023/05/04 09:25:52;;;;;;;1.98;1.02;;;20.40;94.10;;;;;;5018283;28;20032;-74
2023/05/04 09:28:19;;;;;;;3.90;1.48;;;20.20;93.70;;;;;;5018288;28;20056;-74
2023/05/04 09:30:47;;;;;;;4.38;1.77;;;20.40;93.50;;;;;;5021361;28;20061;-74
2023/05/04 09:33:14;;;;;;;2.03;1.20;;;20.50;92.90;;;;;;5014838;28;20021;-75
2023/05/04 09:35:41;;;;;;;4.07;1.27;;;20.50;93.80;;;;;;5022141;28;20037;-74
2023/05/04 09:38:08;;;;;;;1.95;1.10;;;20.80;93.90;;;;;;5021777;28;20382;-75
2023/05/04 09:40:39;;;;;;;2.88;1.17;;;20.80;93.20;;;;;;5020351;28;20108;-75
2023/05/04 09:43:05;;;;;;;4.63;1.05;;;20.90;93.90;;;;;;5020411;28;20025;-75
2023/05/04 09:45:42;;;;;;;4.00;1.10;;;21.30;92.50;;;;;;5013769;28;20037;-75
2023/05/04 09:48:24;;;;;;;4.25;1.63;;;21.40;92.30;;;;;;5024770;28;20071;-75
2023/05/04 09:50:56;;;;;;;2.63;1.33;;;21.30;93.60;;;;;;5024341;28;20499;-75
2023/05/04 09:53:30;;;;;;;2.15;1.10;;;21.00;92.70;;;;;;5018612;28;20036;-74
2023/05/04 09:56:34;;;;;;;2.10;1.30;;;21.20;93.50;;;;;;5025446;28;20038;-75
2023/05/04 09:59:01;;;;;;;1.55;0.90;;;21.40;92.80;;;;;;5017306;28;20177;-75
2023/05/04 10:01:30;;;;;;;1.88;0.98;;;21.40;93.60;;;;;;5024707;28;20078;-75
2023/05/04 10:03:57;;;;;;;2.20;1.20;;;21.10;92.50;;;;;;5021576;28;20053;-75
2023/05/04 10:06:23;;;;;;;2.28;0.95;;;21.50;92.60;;;;;;5024795;28;20483;-75
2023/05/04 10:08:50;;;;;;;2.33;0.95;;;21.40;92.70;;;;;;5027905;28;20548;-75
2023/05/04 10:11:18;;;;;;;1.95;0.95;;;21.60;93.60;;;;;;5023311;28;20029;-75
2023/05/04 10:13:48;;;;;;;2.70;1.10;;;21.80;93.10;;;;;;5027757;28;20079;-75
2023/05/04 10:16:23;;;;;;;2.75;1.30;;;21.90;92.70;;;;;;5024843;28;20037;-74
2023/05/04 10:19:10;;;;;;;1.33;0.82;;;21.90;91.90;;;;;;5019576;28;20030;-74
2023/05/04 10:21:47;;;;;;;4.80;1.10;;;22.10;91.60;;;;;;5023248;28;20021;-74
2023/05/04 10:24:32;;;;;;;3.47;1.00;;;22.30;91.00;;;;;;5023321;28;20030;-75
2023/05/04 10:27:39;;;;;;;4.60;1.20;;;22.30;90.80;;;;;;5024383;28;20034;-76
2023/05/04 10:30:06;;;;;;;2.63;1.10;;;22.10;90.80;;;;;;5031598;28;20458;-75
2023/05/04 10:32:38;;;;;;;1.80;0.95;;;22.30;91.40;;;;;;5018287;28;20030;-74
2023/05/04 10:35:08;;;;;;;1.95;1.00;;;22.00;90.80;;;;;;5026775;28;20100;-74
2023/05/04 10:37:36;;;;;;;2.55;1.10;;;22.20;90.30;;;;;;5022164;28;20579;-74
2023/05/04 10:40:04;;;;;;;3.08;0.95;;;22.40;90.70;;;;;;5024210;28;20034;-74
2023/05/04 10:42:41;;;;;;;2.58;1.13;;;22.40;88.80;;;;;;5023307;28;20420;-74
2023/05/04 10:45:08;;;;;;;2.17;1.20;;;22.20;88.50;;;;;;5027180;28;20037;-74
2023/05/04 10:47:35;;;;;;;1.95;1.15;;;22.00;89.40;;;;;;5027226;28;20041;-74
2023/05/04 10:50:07;;;;;;;2.15;1.23;;;22.20;90.30;;;;;;5020728;28;20050;-74
2023/05/04 10:52:50;;;;;;;3.22;1.25;;;22.40;89.40;;;;;;5023910;28;20083;-74
2023/05/04 10:55:17;;;;;;;2.05;1.10;;;22.70;89.70;;;;;;5025425;28;20075;-74
2023/05/04 10:57:50;;;;;;;3.50;1.13;;;22.80;87.00;;;;;;5020280;28;20040;-75
2023/05/04 11:00:17;;;;;;;3.35;1.00;;;22.40;87.10;;;;;;5025216;28;20021;-74
2023/05/04 11:02:45;;;;;;;1.75;0.88;;;22.60;88.50;;;;;;5026362;28;20034;-74
2023/05/04 11:05:16;;;;;;;4.53;1.23;;;23.20;89.50;;;;;;5027801;28;20022;-73
2023/05/04 11:07:43;;;;;;;2.63;1.17;;;23.70;85.80;;;;;;5024292;28;20033;-74
2023/05/04 11:10:20;;;;;;;2.30;1.08;;;23.70;87.00;;;;;;5019911;28;20149;-74
2023/05/04 11:12:46;;;;;;;1.92;1.10;;;23.40;90.00;;;;;;5024037;28;20510;-74
2023/05/04 11:15:11;;;;;;;2.10;1.00;;;23.30;86.50;;;;;;5025414;28;20033;-74
2023/05/04 11:17:48;;;;;;;3.83;1.10;;;23.10;87.20;;;;;;5021514;28;20171;-74
2023/05/04 11:20:25;;;;;;;3.08;1.20;;;23.30;88.90;;;;;;5022038;28;20349;-74
2023/05/04 11:22:52;;;;;;;2.25;1.05;;;23.70;87.10;;;;;;5023712;28;20095;-74
2023/05/04 11:25:26;;;;;;;7.10;2.17;;;23.10;84.50;;;;;;5023591;28;20057;-75
2023/05/04 11:27:52;;;;;;;13.35;4.05;;;23.40;89.80;;;;;;5025399;28;20083;-74
2023/05/04 11:30:18;;;;;;;33.25;8.27;;;23.90;87.20;;;;;;5022091;28;20026;-73
2023/05/04 11:32:52;;;;;;;7.20;1.95;;;23.90;87.30;;;;;;5021263;28;20064;-74
2023/05/04 11:35:23;;;;;;;5.93;2.10;;;24.00;85.90;;;;;;5025689;28;20032;-74
2023/05/04 11:37:49;;;;;;;5.95;1.80;;;24.10;86.90;;;;;;5026619;28;20029;-74
2023/05/04 11:40:20;;;;;;;5.13;1.77;;;24.40;86.80;;;;;;5025263;28;20105;-75
2023/05/04 11:42:48;;;;;;;3.40;1.00;;;24.10;86.40;;;;;;5026096;28;20025;-74
2023/05/04 11:45:18;;;;;;;1.75;0.80;;;24.10;85.90;;;;;;5014640;28;20087;-74
2023/05/04 11:47:45;;;;;;;2.70;1.23;;;24.20;86.10;;;;;;5026141;28;20116;-74
2023/05/04 11:50:13;;;;;;;2.15;1.00;;;23.90;86.50;;;;;;5024764;28;20029;-74
2023/05/04 11:52:40;;;;;;;1.98;0.98;;;23.60;85.50;;;;;;5023127;28;20041;-74
2023/05/04 11:55:27;;;;;;;1.42;0.75;;;23.60;86.10;;;;;;5026454;28;20120;-74
2023/05/04 11:58:01;;;;;;;3.00;1.30;;;23.70;88.30;;;;;;5021494;28;20030;-74
2023/05/04 12:00:39;;;;;;;;;;;23.90;89.60;;;;;;5023177;28;20075;-74
2023/05/04 12:03:07;;;;;;;2.78;0.88;;;23.90;87.20;;;;;;5025005;28;19996;-73
2023/05/04 12:05:34;;;;;;;3.00;1.20;;;23.90;86.20;;;;;;5020048;28;20033;-74
2023/05/04 12:08:02;;;;;;;3.00;1.10;;;24.00;88.00;;;;;;5019869;28;20040;-75
2023/05/04 12:10:28;;;;;;;4.30;1.42;;;24.00;85.80;;;;;;5024298;28;20041;-73
2023/05/04 12:12:54;;;;;;;2.30;1.08;;;24.00;86.20;;;;;;5019339;28;20025;-75
2023/05/04 12:15:31;;;;;;;3.13;1.20;;;24.40;88.20;;;;;;5019157;28;20472;-74
2023/05/04 12:17:57;;;;;;;2.97;1.00;;;24.40;86.30;;;;;;5015569;28;20500;-74
2023/05/04 12:20:24;;;;;;;1.83;0.93;;;24.20;86.00;;;;;;5013873;28;20025;-74
2023/05/04 12:22:50;;;;;;;2.78;1.00;;;24.00;87.40;;;;;;5016791;28;20029;-75
2023/05/04 12:25:18;;;;;;;1.90;0.90;;;24.40;85.30;;;;;;5012263;28;20055;-75
2023/05/04 12:27:44;;;;;;;1.92;1.00;;;24.50;84.00;;;;;;5010613;28;20037;-76
2023/05/04 12:30:11;;;;;;;3.10;0.93;;;24.40;85.30;;;;;;5015861;28;20042;-75
2023/05/04 12:32:36;;;;;;;5.68;1.20;;;24.60;84.10;;;;;;5008641;28;20451;-74
2023/05/04 12:35:03;;;;;;;3.53;1.00;;;24.30;83.30;;;;;;5014998;28;20033;-74
2023/05/04 12:37:29;;;;;;;4.07;1.10;;;24.50;85.20;;;;;;5007433;28;20495;-75
2023/05/04 12:39:55;;;;;;;2.30;0.73;;;24.40;83.40;;;;;;5018793;28;20526;-74
2023/05/04 12:42:21;;;;;;;4.80;0.90;;;24.20;82.70;;;;;;5023983;28;20137;-74
2023/05/04 12:44:47;;;;;;;2.35;0.98;;;24.40;83.20;;;;;;5024264;28;20041;-74
2023/05/04 12:47:16;;;;;;;3.08;1.13;;;24.50;85.90;;;;;;5024994;28;20045;-75